Time;durP1;ratioP1;P1;durP2;ratioP2;P2;SDS_P1;SDS_P2;PMS_P1;PMS_P2;Temp;Humidity;BMP_temperature;BMP_pressure;BME280_temperature;BME280_humidity;BME280_pressure;Samples;Min_cycle;Max_cycle;Signal;HPM_P1;HPM_P2
2023/08/02 00:02:04;;;;;;;2.87;2.03;;;15.00;99.90;;;;;;5036846;28;20642;-76
2023/08/02 00:04:33;;;;;;;4.47;2.20;;;15.00;99.90;;;;;;5035477;28;20208;-77
2023/08/02 00:07:02;;;;;;;3.30;2.17;;;15.00;99.90;;;;;;5035700;28;20278;-77
2023/08/02 00:09:30;;;;;;;5.37;2.20;;;15.00;99.90;;;;;;5036119;28;20263;-78
2023/08/02 00:12:00;;;;;;;3.90;2.10;;;14.90;99.90;;;;;;5036468;28;20252;-79
2023/08/02 00:14:28;;;;;;;2.47;2.27;;;14.90;99.90;;;;;;5034888;28;20270;-76
2023/08/02 00:16:56;;;;;;;3.50;2.40;;;14.90;99.90;;;;;;5034672;28;20231;-77
2023/08/02 00:19:25;;;;;;;4.60;2.40;;;14.90;99.90;;;;;;5035822;28;20231;-76
2023/08/02 00:21:53;;;;;;;2.50;2.07;;;14.90;99.90;;;;;;5035583;28;20225;-76
2023/08/02 00:24:21;;;;;;;3.93;2.20;;;14.90;99.90;;;;;;5035346;28;20569;-76
2023/08/02 00:26:49;;;;;;;3.50;2.10;;;14.90;99.90;;;;;;5035138;28;20243;-78
2023/08/02 00:29:19;;;;;;;3.83;2.47;;;14.90;99.90;;;;;;5036371;28;20698;-80
2023/08/02 00:31:47;;;;;;;2.27;2.03;;;14.90;99.90;;;;;;5034376;28;20205;-78
2023/08/02 00:34:15;;;;;;;5.70;2.20;;;14.90;99.90;;;;;;5036654;28;20225;-77
2023/08/02 00:36:43;;;;;;;3.20;1.83;;;14.90;99.90;;;;;;5035041;28;20324;-77
2023/08/02 00:39:12;;;;;;;2.47;2.20;;;14.90;99.90;;;;;;5037387;28;20272;-77
2023/08/02 00:41:40;;;;;;;2.30;2.10;;;14.90;99.90;;;;;;5035448;28;20267;-78
2023/08/02 00:44:08;;;;;;;2.07;1.87;;;14.90;99.90;;;;;;5035052;28;20208;-78
2023/08/02 00:46:38;;;;;;;2.43;2.20;;;14.90;99.90;;;;;;5035131;28;20236;-75
2023/08/02 00:49:06;;;;;;;4.00;2.30;;;14.90;99.90;;;;;;5036574;28;20224;-81
2023/08/02 00:51:35;;;;;;;2.23;1.90;;;14.90;99.90;;;;;;5035347;28;20232;-77
2023/08/02 00:54:05;;;;;;;2.73;2.03;;;14.90;99.90;;;;;;5033951;28;20265;-78
2023/08/02 00:56:33;;;;;;;3.67;2.03;;;14.80;99.90;;;;;;5034681;28;20233;-76
2023/08/02 00:59:02;;;;;;;3.33;2.33;;;14.80;99.90;;;;;;5035834;28;20259;-76
2023/08/02 01:01:30;;;;;;;3.10;1.93;;;14.80;99.90;;;;;;5034140;28;20217;-78
2023/08/02 01:03:59;;;;;;;2.33;1.97;;;14.80;99.90;;;;;;5034720;28;20303;-79
2023/08/02 01:06:34;;;;;;;4.57;2.20;;;14.70;99.90;;;;;;5035815;28;20557;-78
2023/08/02 01:09:04;;;;;;;2.97;2.30;;;14.70;99.90;;;;;;5037363;28;20315;-78
2023/08/02 01:11:38;;;;;;;4.60;2.53;;;14.70;99.90;;;;;;5040527;28;20216;-77
2023/08/02 01:14:07;;;;;;;6.07;2.20;;;14.70;99.90;;;;;;5042954;28;20220;-78
2023/08/02 01:16:37;;;;;;;3.13;2.20;;;14.70;99.90;;;;;;5038210;28;20232;-78
2023/08/02 01:19:11;;;;;;;3.87;2.43;;;14.70;99.90;;;;;;5035653;28;20355;-78
2023/08/02 01:21:41;;;;;;;2.53;2.30;;;14.60;99.90;;;;;;5035778;28;20233;-79
2023/08/02 01:24:09;;;;;;;4.07;2.27;;;14.70;99.90;;;;;;5037655;28;20212;-76
2023/08/02 01:26:41;;;;;;;4.87;2.30;;;14.60;99.90;;;;;;5045399;28;20647;-79
2023/08/02 01:29:15;;;;;;;3.23;2.50;;;14.60;99.90;;;;;;5058859;28;20216;-76
2023/08/02 01:31:44;;;;;;;2.67;2.10;;;14.50;99.90;;;;;;5057535;28;20220;-78
2023/08/02 01:34:13;;;;;;;4.13;2.60;;;14.50;99.90;;;;;;5056802;28;20215;-78
2023/08/02 01:36:42;;;;;;;2.80;2.50;;;14.40;99.90;;;;;;5038966;28;20745;-77
2023/08/02 01:39:11;;;;;;;2.97;2.40;;;14.40;99.90;;;;;;5040548;28;20220;-79
2023/08/02 01:41:39;;;;;;;3.63;2.53;;;14.40;99.90;;;;;;5055520;28;20212;-76
2023/08/02 01:44:07;;;;;;;3.93;2.60;;;14.40;99.90;;;;;;5040520;28;20639;-78
2023/08/02 01:46:35;;;;;;;5.10;2.50;;;14.40;99.90;;;;;;5033780;28;20733;-75
2023/08/02 01:49:04;;;;;;;4.47;2.60;;;14.30;99.90;;;;;;5033296;28;20204;-78
2023/08/02 01:51:32;;;;;;;5.00;2.57;;;14.30;99.90;;;;;;5034038;28;20212;-76
2023/08/02 01:54:01;;;;;;;4.13;2.70;;;14.30;99.90;;;;;;5032890;28;20319;-77
2023/08/02 01:56:29;;;;;;;3.37;2.53;;;14.20;99.90;;;;;;5033594;28;20231;-76
2023/08/02 01:58:57;;;;;;;3.23;2.40;;;14.20;99.90;;;;;;5034878;28;20231;-76
2023/08/02 02:01:25;;;;;;;5.23;2.63;;;14.10;99.90;;;;;;5034049;28;20550;-78
2023/08/02 02:03:53;;;;;;;4.17;2.63;;;14.10;99.90;;;;;;5033457;28;20213;-78
2023/08/02 02:06:21;;;;;;;5.00;2.73;;;14.10;99.90;;;;;;5033681;28;20201;-77
2023/08/02 02:08:50;;;;;;;5.37;3.00;;;14.00;99.90;;;;;;5034159;28;20296;-77
2023/08/02 02:11:19;;;;;;;5.20;2.83;;;14.00;99.90;;;;;;5033784;28;20825;-79
2023/08/02 02:13:48;;;;;;;4.60;2.70;;;13.90;99.90;;;;;;5032904;28;20243;-77
2023/08/02 02:16:16;;;;;;;5.23;2.70;;;13.80;99.90;;;;;;5032107;28;20662;-76
2023/08/02 02:18:44;;;;;;;4.43;2.70;;;13.80;99.90;;;;;;5032969;28;20599;-77
2023/08/02 02:21:12;;;;;;;3.53;2.43;;;13.80;99.90;;;;;;5033028;28;20229;-76
2023/08/02 02:23:40;;;;;;;6.33;2.63;;;13.70;99.90;;;;;;5033054;28;20219;-78
2023/08/02 02:26:09;;;;;;;4.17;2.63;;;13.70;99.90;;;;;;5033399;28;20205;-78
2023/08/02 02:28:38;;;;;;;4.40;2.50;;;13.70;99.90;;;;;;5033295;28;20328;-76
2023/08/02 02:31:06;;;;;;;3.13;2.37;;;13.70;99.90;;;;;;5035020;28;20290;-77
2023/08/02 02:33:34;;;;;;;4.00;2.30;;;13.60;99.90;;;;;;5032772;28;20209;-78
2023/08/02 02:36:04;;;;;;;4.17;2.40;;;13.60;99.90;;;;;;5032078;28;20209;-78
2023/08/02 02:38:32;;;;;;;4.80;2.80;;;13.50;99.90;;;;;;5042852;28;20262;-77
2023/08/02 02:41:00;;;;;;;4.83;2.57;;;13.60;99.90;;;;;;5053316;28;20254;-77
2023/08/02 02:43:29;;;;;;;3.00;2.50;;;13.50;99.90;;;;;;5036511;28;20656;-77
2023/08/02 02:45:59;;;;;;;5.13;2.50;;;13.50;99.90;;;;;;5032792;28;20690;-76
2023/08/02 02:48:27;;;;;;;4.80;2.50;;;13.40;99.90;;;;;;5036180;28;20216;-78
2023/08/02 02:50:55;;;;;;;4.83;2.77;;;13.40;99.90;;;;;;5032766;28;20225;-78
2023/08/02 02:53:23;;;;;;;5.13;2.93;;;13.40;99.90;;;;;;5033210;28;20601;-78
2023/08/02 02:55:52;;;;;;;5.60;2.80;;;13.40;99.90;;;;;;5036222;28;20212;-76
2023/08/02 02:58:20;;;;;;;3.93;2.83;;;13.30;99.90;;;;;;5037352;28;20225;-77
2023/08/02 03:00:48;;;;;;;4.03;2.80;;;13.30;99.90;;;;;;5038329;28;20266;-76
2023/08/02 03:03:18;;;;;;;4.97;2.70;;;13.20;99.90;;;;;;5036794;28;20687;-77
2023/08/02 03:05:46;;;;;;;3.47;2.60;;;13.20;99.90;;;;;;5036918;28;20235;-76
2023/08/02 03:08:14;;;;;;;4.40;2.70;;;13.10;99.90;;;;;;5037697;28;20209;-78
2023/08/02 03:10:42;;;;;;;3.50;2.60;;;13.10;99.90;;;;;;5037104;28;20287;-78
2023/08/02 03:13:10;;;;;;;5.27;3.10;;;13.00;99.90;;;;;;5036367;28;20302;-78
2023/08/02 03:15:38;;;;;;;4.87;2.90;;;12.90;99.90;;;;;;5037425;28;20247;-77
2023/08/02 03:18:07;;;;;;;3.60;2.80;;;12.90;99.90;;;;;;5037880;28;20244;-78
2023/08/02 03:20:40;;;;;;;3.17;2.60;;;12.90;99.90;;;;;;5038025;28;20239;-78
2023/08/02 03:23:09;;;;;;;5.47;3.10;;;12.80;99.90;;;;;;5037343;28;20213;-76
2023/08/02 03:25:37;;;;;;;3.20;2.90;;;12.80;99.90;;;;;;5037628;28;20262;-77
2023/08/02 03:28:06;;;;;;;5.93;3.20;;;12.80;99.90;;;;;;5038833;28;20205;-77
2023/08/02 03:30:34;;;;;;;4.50;3.00;;;12.70;99.90;;;;;;5038616;28;20651;-78
2023/08/02 03:33:02;;;;;;;6.73;3.30;;;12.70;99.90;;;;;;5038232;28;20197;-78
2023/08/02 03:35:30;;;;;;;4.77;3.47;;;12.70;99.90;;;;;;5055920;28;20204;-77
2023/08/02 03:38:00;;;;;;;5.90;3.37;;;12.60;99.90;;;;;;5042662;28;20236;-80
2023/08/02 03:40:28;;;;;;;7.63;3.10;;;12.60;99.90;;;;;;5043450;28;20201;-78
2023/08/02 03:42:56;;;;;;;5.00;3.43;;;12.60;99.90;;;;;;5039918;28;20706;-77
2023/08/02 03:45:24;;;;;;;4.87;3.10;;;12.60;99.90;;;;;;5039694;28;20212;-77
2023/08/02 03:47:53;;;;;;;4.77;3.50;;;12.50;99.90;;;;;;5039801;28;20256;-76
2023/08/02 03:50:21;;;;;;;8.23;3.40;;;12.60;99.90;;;;;;5038358;28;20655;-77
2023/08/02 03:52:50;;;;;;;5.87;3.53;;;12.50;99.90;;;;;;5039148;28;20245;-77
2023/08/02 03:55:19;;;;;;;4.27;3.47;;;12.50;99.90;;;;;;5038598;28;20227;-76
2023/08/02 03:57:47;;;;;;;6.03;3.37;;;12.40;99.90;;;;;;5035761;28;20221;-77
2023/08/02 04:00:16;;;;;;;4.43;3.17;;;12.40;99.90;;;;;;5035401;28;20213;-77
2023/08/02 04:02:44;;;;;;;4.90;3.60;;;12.40;99.90;;;;;;5036749;28;20274;-76
2023/08/02 04:05:12;;;;;;;4.43;3.33;;;12.40;99.90;;;;;;5037487;28;20235;-77
2023/08/02 04:07:41;;;;;;;6.73;3.73;;;12.40;99.90;;;;;;5036739;28;20332;-77
2023/08/02 04:10:09;;;;;;;4.00;3.20;;;12.40;99.90;;;;;;5037595;28;20243;-78
2023/08/02 04:12:39;;;;;;;6.73;3.20;;;12.30;99.90;;;;;;5037477;28;20208;-78
2023/08/02 04:15:09;;;;;;;6.77;3.40;;;12.30;99.90;;;;;;5035884;28;20688;-76
2023/08/02 04:17:37;;;;;;;5.23;3.30;;;12.30;99.90;;;;;;5036871;28;20235;-77
2023/08/02 04:20:06;;;;;;;6.67;3.17;;;12.30;99.90;;;;;;5036899;28;20208;-78
2023/08/02 04:22:34;;;;;;;6.50;3.20;;;12.30;99.90;;;;;;5036174;28;20232;-76
2023/08/02 04:25:03;;;;;;;6.73;3.23;;;12.30;99.90;;;;;;5035816;28;20213;-76
2023/08/02 04:27:31;;;;;;;6.67;3.37;;;12.30;99.90;;;;;;5035329;28;20427;-77
2023/08/02 04:30:01;;;;;;;3.27;2.80;;;12.40;99.90;;;;;;5036205;28;20247;-74
2023/08/02 04:32:30;;;;;;;7.37;3.57;;;12.40;99.90;;;;;;5036515;28;20403;-76
2023/08/02 04:34:59;;;;;;;4.87;3.30;;;12.50;99.90;;;;;;5041187;28;20209;-78
2023/08/02 04:37:29;;;;;;;4.97;3.27;;;12.60;99.90;;;;;;5056139;28;20220;-76
2023/08/02 04:39:57;;;;;;;7.03;3.10;;;12.70;99.90;;;;;;5056149;28;20273;-77
2023/08/02 04:42:26;;;;;;;4.17;3.07;;;12.80;99.90;;;;;;5041255;28;20204;-76
2023/08/02 04:44:54;;;;;;;6.47;2.90;;;12.90;99.90;;;;;;5035879;28;20262;-75
2023/08/02 04:47:24;;;;;;;7.23;2.83;;;12.90;99.90;;;;;;5036109;28;20327;-77
2023/08/02 04:49:53;;;;;;;5.23;3.00;;;13.00;99.90;;;;;;5036257;28;20205;-77
2023/08/02 04:52:21;;;;;;;6.07;2.87;;;13.10;99.90;;;;;;5035477;28;20243;-78
2023/08/02 04:54:50;;;;;;;5.40;2.70;;;13.10;99.90;;;;;;5040933;28;20260;-76
2023/08/02 04:57:19;;;;;;;4.43;2.70;;;13.30;99.90;;;;;;5034999;28;20220;-76
2023/08/02 04:59:47;;;;;;;4.07;2.80;;;13.40;99.90;;;;;;5043472;28;20662;-75
2023/08/02 05:02:15;;;;;;;3.93;2.60;;;13.50;99.90;;;;;;5055429;28;20211;-77
2023/08/02 05:04:44;;;;;;;5.80;2.50;;;13.50;99.90;;;;;;5054560;28;20234;-75
2023/08/02 05:07:13;;;;;;;3.67;2.50;;;13.60;99.90;;;;;;5055747;28;20657;-75
2023/08/02 05:09:43;;;;;;;5.43;2.47;;;13.60;99.90;;;;;;5055590;28;20352;-77
2023/08/02 05:12:11;;;;;;;3.37;2.60;;;13.60;99.90;;;;;;5056490;28;20223;-76
2023/08/02 05:14:39;;;;;;;4.10;2.40;;;13.70;99.90;;;;;;5039272;28;20216;-75
2023/08/02 05:17:08;;;;;;;6.50;2.43;;;13.70;99.90;;;;;;5037882;28;20219;-77
2023/08/02 05:19:36;;;;;;;4.30;2.80;;;13.80;99.90;;;;;;5040315;28;20702;-76
2023/08/02 05:22:06;;;;;;;2.87;2.60;;;13.90;99.90;;;;;;5036744;28;20651;-77
2023/08/02 05:24:34;;;;;;;5.23;2.30;;;14.00;99.90;;;;;;5034724;28;20197;-75
2023/08/02 05:27:02;;;;;;;3.90;2.50;;;14.00;99.90;;;;;;5034722;28;20209;-78
2023/08/02 05:29:30;;;;;;;8.70;2.53;;;14.10;99.90;;;;;;5035249;28;20213;-77
2023/08/02 05:31:58;;;;;;;4.90;2.57;;;14.20;99.90;;;;;;5035058;28;20259;-77
2023/08/02 05:34:26;;;;;;;4.87;2.43;;;14.20;99.90;;;;;;5047519;28;20212;-75
2023/08/02 05:36:55;;;;;;;7.70;2.60;;;14.30;99.90;;;;;;5055553;28;20208;-76
2023/08/02 05:39:24;;;;;;;6.13;2.37;;;14.40;99.90;;;;;;5035567;28;20271;-76
2023/08/02 05:41:52;;;;;;;5.87;2.67;;;14.50;99.90;;;;;;5034671;28;20251;-78
2023/08/02 05:44:21;;;;;;;4.90;2.30;;;14.60;99.90;;;;;;5036062;28;20263;-77
2023/08/02 05:46:49;;;;;;;4.60;2.47;;;14.70;99.90;;;;;;5050848;28;20217;-76
2023/08/02 05:49:17;;;;;;;4.27;2.33;;;14.80;99.90;;;;;;5054350;28;20200;-76
2023/08/02 05:51:45;;;;;;;4.87;2.30;;;14.90;99.90;;;;;;5051750;28;20271;-77
2023/08/02 05:54:14;;;;;;;4.13;2.00;;;14.90;99.90;;;;;;5037133;28;20209;-78
2023/08/02 05:56:43;;;;;;;3.40;2.00;;;15.00;99.90;;;;;;5054665;28;20212;-77
2023/08/02 05:59:11;;;;;;;4.63;2.47;;;15.00;99.90;;;;;;5056718;28;20365;-80
2023/08/02 06:01:39;;;;;;;4.00;2.30;;;15.00;99.90;;;;;;5054341;28;20230;-78
2023/08/02 06:04:08;;;;;;;5.17;2.50;;;15.10;99.90;;;;;;5041609;28;20267;-77
2023/08/02 06:06:36;;;;;;;2.53;2.27;;;15.20;99.90;;;;;;5037317;28;20227;-76
2023/08/02 06:09:05;;;;;;;4.37;2.63;;;15.30;99.90;;;;;;5033331;28;20209;-74
2023/08/02 06:11:37;;;;;;;3.43;2.40;;;15.50;99.90;;;;;;5040441;28;20208;-78
2023/08/02 06:14:06;;;;;;;3.40;2.13;;;15.60;99.90;;;;;;5052116;28;20212;-77
2023/08/02 06:16:35;;;;;;;3.20;2.00;;;15.80;99.90;;;;;;5054443;28;20261;-78
2023/08/02 06:19:03;;;;;;;4.13;2.37;;;16.00;99.90;;;;;;5053890;28;20228;-77
2023/08/02 06:21:34;;;;;;;4.47;2.20;;;16.10;99.90;;;;;;5042684;28;20252;-78
2023/08/02 06:24:02;;;;;;;2.77;1.90;;;16.20;99.90;;;;;;5034336;28;20713;-76
2023/08/02 06:26:30;;;;;;;2.40;2.00;;;16.10;99.90;;;;;;5033302;28;20212;-75
2023/08/02 06:29:00;;;;;;;3.10;2.13;;;16.10;99.90;;;;;;5033445;28;20626;-77
2023/08/02 06:31:29;;;;;;;2.60;2.00;;;15.90;99.90;;;;;;5036847;28;20209;-78
2023/08/02 06:33:58;;;;;;;2.50;2.10;;;16.00;99.90;;;;;;5056468;28;20210;-77
2023/08/02 06:36:26;;;;;;;4.63;2.10;;;15.90;99.90;;;;;;5056797;28;20208;-76
2023/08/02 06:38:54;;;;;;;6.63;2.00;;;15.90;99.90;;;;;;5043435;28;20228;-75
2023/08/02 06:41:22;;;;;;;3.07;2.00;;;15.90;99.90;;;;;;5037071;28;20213;-77
2023/08/02 06:43:51;;;;;;;4.67;2.07;;;15.90;99.90;;;;;;5036876;28;20208;-79
2023/08/02 06:46:19;;;;;;;2.90;1.90;;;16.00;99.90;;;;;;5036980;28;20296;-76
2023/08/02 06:48:48;;;;;;;4.57;2.00;;;15.90;99.90;;;;;;5036943;28;20209;-77
2023/08/02 06:51:16;;;;;;;2.40;1.77;;;15.90;99.90;;;;;;5038175;28;20208;-76
2023/08/02 06:53:45;;;;;;;3.77;2.13;;;15.90;99.90;;;;;;5036537;28;20201;-76
2023/08/02 06:56:14;;;;;;;3.30;1.83;;;15.90;99.90;;;;;;5037689;28;20228;-77
2023/08/02 06:58:42;;;;;;;2.90;1.70;;;16.00;99.90;;;;;;5037687;28;20220;-75
2023/08/02 07:01:15;;;;;;;2.90;1.90;;;16.10;99.90;;;;;;5037962;28;20216;-75
2023/08/02 07:03:43;;;;;;;3.87;2.10;;;16.00;99.90;;;;;;5037304;28;20209;-75
2023/08/02 07:06:15;;;;;;;4.63;2.00;;;16.00;99.90;;;;;;5038644;28;20667;-75
2023/08/02 07:08:44;;;;;;;2.33;1.87;;;16.00;99.90;;;;;;5036388;28;20200;-74
2023/08/02 07:11:12;;;;;;;2.60;1.93;;;16.00;99.90;;;;;;5035930;28;20236;-77
2023/08/02 07:14:00;;;;;;;1.90;1.70;;;15.90;99.90;;;;;;5054777;28;20676;-76
2023/08/02 07:16:28;;;;;;;3.10;1.90;;;15.90;99.90;;;;;;5055597;28;20249;-73
2023/08/02 07:18:56;;;;;;;5.23;2.17;;;15.90;99.90;;;;;;5055766;28;20227;-74
2023/08/02 07:21:26;;;;;;;2.80;1.93;;;15.90;99.90;;;;;;5055813;28;20236;-76
2023/08/02 07:23:54;;;;;;;4.43;2.23;;;15.80;99.90;;;;;;5035565;28;20572;-76
2023/08/02 07:26:23;;;;;;;3.13;2.10;;;15.80;99.90;;;;;;5035591;28;20208;-76
2023/08/02 07:28:51;;;;;;;5.63;2.27;;;15.80;99.90;;;;;;5035612;28;20209;-75
2023/08/02 07:31:19;;;;;;;5.20;2.23;;;15.90;99.90;;;;;;5043583;28;20575;-75
2023/08/02 07:33:47;;;;;;;5.40;2.27;;;15.90;99.90;;;;;;5035673;28;20263;-77
2023/08/02 07:36:18;;;;;;;4.17;2.10;;;15.90;99.90;;;;;;5035495;28;20209;-77
2023/08/02 07:38:48;;;;;;;4.83;2.40;;;16.00;99.90;;;;;;5035439;28;20204;-77
2023/08/02 07:41:17;;;;;;;2.67;2.20;;;16.10;99.90;;;;;;5036438;28;20205;-77
2023/08/02 07:43:49;;;;;;;3.43;2.07;;;16.20;99.90;;;;;;5035199;28;20197;-75
2023/08/02 07:46:18;;;;;;;3.37;2.20;;;16.30;99.90;;;;;;5034726;28;20233;-75
2023/08/02 07:48:47;;;;;;;3.17;1.87;;;16.50;99.90;;;;;;5035072;28;20209;-75
2023/08/02 07:51:15;;;;;;;2.67;1.90;;;16.60;99.90;;;;;;5034901;28;20209;-76
2023/08/02 07:53:43;;;;;;;3.10;2.03;;;16.70;99.90;;;;;;5034384;28;20220;-75
2023/08/02 07:56:13;;;;;;;2.77;2.00;;;16.70;99.90;;;;;;5034525;28;20261;-75
2023/08/02 07:58:41;;;;;;;3.00;1.90;;;16.80;99.90;;;;;;5034592;28;20282;-78
2023/08/02 08:01:10;;;;;;;2.53;2.33;;;16.90;99.90;;;;;;5034788;28;20229;-77
2023/08/02 08:03:39;;;;;;;6.60;2.27;;;16.80;99.90;;;;;;5034320;28;20235;-75
2023/08/02 08:06:11;;;;;;;3.57;2.20;;;16.60;99.90;;;;;;5034599;28;20209;-76
2023/08/02 08:08:40;;;;;;;2.97;2.30;;;16.80;99.90;;;;;;5034254;28;20259;-76
2023/08/02 08:11:08;;;;;;;4.83;2.33;;;16.80;99.90;;;;;;5034069;28;20668;-77
2023/08/02 08:13:38;;;;;;;3.13;2.03;;;16.60;99.90;;;;;;5034256;28;20205;-77
2023/08/02 08:16:06;;;;;;;3.97;2.10;;;16.60;99.90;;;;;;5034304;28;20219;-74
2023/08/02 08:18:35;;;;;;;3.90;2.17;;;16.60;99.90;;;;;;5034378;28;20209;-80
2023/08/02 08:21:04;;;;;;;3.07;2.17;;;16.60;99.90;;;;;;5034087;28;20316;-76
2023/08/02 08:23:33;;;;;;;4.47;2.13;;;16.80;99.90;;;;;;5033532;28;20212;-78
2023/08/02 08:26:02;;;;;;;5.07;2.20;;;16.80;99.90;;;;;;5034166;28;20296;-77
2023/08/02 08:28:30;;;;;;;2.80;2.30;;;16.80;99.90;;;;;;5034230;28;20244;-77
2023/08/02 08:31:03;;;;;;;4.30;2.33;;;16.80;99.90;;;;;;5042743;28;20299;-75
2023/08/02 08:33:32;;;;;;;4.70;2.40;;;16.70;99.90;;;;;;5033574;28;20205;-77
2023/08/02 08:36:00;;;;;;;3.83;2.30;;;16.70;99.90;;;;;;5034435;28;20297;-76
2023/08/02 08:38:28;;;;;;;2.90;2.00;;;16.80;99.90;;;;;;5034181;28;20208;-78
2023/08/02 08:40:57;;;;;;;5.13;2.40;;;17.00;99.90;;;;;;5033536;28;20275;-75
2023/08/02 08:43:27;;;;;;;3.90;2.40;;;17.10;99.90;;;;;;5033884;28;20266;-77
2023/08/02 08:45:57;;;;;;;3.17;2.13;;;17.40;99.90;;;;;;5034102;28;20232;-78
2023/08/02 08:48:28;;;;;;;2.50;2.10;;;17.50;99.90;;;;;;5033925;28;20655;-77
2023/08/02 08:50:57;;;;;;;3.83;2.20;;;17.50;99.90;;;;;;5034287;28;20189;-75
2023/08/02 08:53:32;;;;;;;3.77;2.60;;;17.60;99.90;;;;;;5033587;28;20213;-79
2023/08/02 08:56:02;;;;;;;3.23;2.10;;;17.60;99.90;;;;;;5034148;28;20196;-76
2023/08/02 08:58:30;;;;;;;4.60;2.50;;;17.50;99.90;;;;;;5033405;28;20654;-77
2023/08/02 09:00:59;;;;;;;3.33;2.53;;;17.60;99.90;;;;;;5033798;28;20717;-76
2023/08/02 09:03:28;;;;;;;3.13;2.50;;;17.50;99.90;;;;;;5033450;28;20220;-74
2023/08/02 09:06:00;;;;;;;4.63;2.47;;;17.40;99.90;;;;;;5033795;28;20224;-78
2023/08/02 09:08:28;;;;;;;4.80;2.47;;;17.30;99.90;;;;;;5049114;28;20294;-77
2023/08/02 09:10:58;;;;;;;4.17;2.67;;;17.40;99.90;;;;;;5053620;28;20207;-78
2023/08/02 09:13:28;;;;;;;3.80;2.40;;;17.30;99.90;;;;;;5053375;28;20212;-75
2023/08/02 09:16:07;;;;;;;4.77;2.50;;;17.40;99.90;;;;;;5048433;28;20654;-75
2023/08/02 09:18:38;;;;;;;3.67;2.50;;;17.30;99.90;;;;;;5033558;28;20228;-75
2023/08/02 09:21:07;;;;;;;5.10;2.60;;;17.40;99.90;;;;;;5033527;28;20240;-77
2023/08/02 09:23:35;;;;;;;3.87;2.53;;;17.60;99.90;;;;;;5032934;28;20213;-75
2023/08/02 09:26:18;;;;;;;3.43;2.53;;;17.70;99.90;;;;;;5032729;28;20216;-77
2023/08/02 09:29:00;;;;;;;4.43;2.63;;;17.80;99.90;;;;;;5043709;28;20573;-75
2023/08/02 09:31:29;;;;;;;3.93;2.57;;;17.80;99.90;;;;;;5052913;28;20279;-76
2023/08/02 09:33:59;;;;;;;4.03;2.67;;;17.80;99.90;;;;;;5052606;28;20452;-78
2023/08/02 09:36:28;;;;;;;5.97;2.70;;;17.90;99.90;;;;;;5033857;28;20208;-77
2023/08/02 09:38:58;;;;;;;4.63;2.57;;;18.10;99.90;;;;;;5032535;28;20216;-77
2023/08/02 09:41:26;;;;;;;4.33;2.43;;;18.10;99.90;;;;;;5032202;28;20236;-79
2023/08/02 09:43:58;;;;;;;3.00;2.67;;;18.00;99.90;;;;;;5032573;28;20236;-79
2023/08/02 09:46:29;;;;;;;4.00;2.87;;;17.90;99.90;;;;;;5032762;28;20205;-79
2023/08/02 09:48:59;;;;;;;2.97;2.53;;;18.00;99.90;;;;;;5032402;28;20200;-76
2023/08/02 09:51:40;;;;;;;5.10;2.77;;;18.10;99.90;;;;;;5032690;28;20675;-78
2023/08/02 09:54:09;;;;;;;3.77;2.77;;;17.90;99.90;;;;;;5032107;28;20204;-77
2023/08/02 09:56:39;;;;;;;3.80;2.60;;;18.00;99.90;;;;;;5032445;28;20244;-75
2023/08/02 09:59:09;;;;;;;3.47;2.50;;;18.20;99.90;;;;;;5032499;28;20262;-76
2023/08/02 10:01:37;;;;;;;3.10;2.50;;;18.20;99.90;;;;;;5031682;28;20688;-77
2023/08/02 10:04:09;;;;;;;3.53;2.37;;;18.30;99.90;;;;;;5032297;28;20205;-76
2023/08/02 10:06:41;;;;;;;4.70;2.60;;;18.20;99.90;;;;;;5032354;28;20209;-76
2023/08/02 10:09:11;;;;;;;4.13;2.70;;;18.10;99.90;;;;;;5032898;28;20239;-79
2023/08/02 10:11:48;;;;;;;4.70;2.90;;;18.00;99.90;;;;;;5032586;28;20219;-76
2023/08/02 10:14:18;;;;;;;5.93;2.90;;;17.90;99.90;;;;;;5032437;28;20363;-77
2023/08/02 10:16:47;;;;;;;5.20;2.70;;;17.80;99.90;;;;;;5032080;28;20212;-77
2023/08/02 10:19:18;;;;;;;4.33;3.00;;;17.70;99.90;;;;;;5031432;28;20299;-78
2023/08/02 10:21:48;;;;;;;4.83;3.17;;;17.60;99.90;;;;;;5031614;28;20268;-77
2023/08/02 10:24:17;;;;;;;4.93;3.07;;;17.50;99.90;;;;;;5031622;28;20213;-77
2023/08/02 10:26:46;;;;;;;8.40;3.20;;;17.50;99.90;;;;;;5036882;28;20208;-77
2023/08/02 10:29:15;;;;;;;5.30;2.90;;;17.50;99.90;;;;;;5052045;28;20294;-74
2023/08/02 10:31:44;;;;;;;5.57;3.03;;;17.50;99.90;;;;;;5051802;28;20205;-77
2023/08/02 10:34:50;;;;;;;6.07;3.20;;;17.40;99.90;;;;;;5046915;28;20220;-76
2023/08/02 10:37:19;;;;;;;6.00;3.27;;;17.20;99.90;;;;;;5031991;28;20224;-74
2023/08/02 10:39:55;;;;;;;3.60;3.10;;;17.30;99.90;;;;;;5031905;28;20312;-76
2023/08/02 10:42:25;;;;;;;4.00;3.03;;;17.30;99.90;;;;;;5039303;28;20216;-75
2023/08/02 10:45:14;;;;;;;4.97;2.90;;;17.30;99.90;;;;;;5051879;28;20300;-75
2023/08/02 10:47:43;;;;;;;3.30;2.70;;;17.30;99.90;;;;;;5034936;28;20263;-76
2023/08/02 10:50:48;;;;;;;5.00;3.03;;;17.20;99.90;;;;;;5032021;28;20505;-75
2023/08/02 10:53:17;;;;;;;3.50;2.90;;;17.10;99.90;;;;;;5031523;28;20661;-75
2023/08/02 10:56:09;;;;;;;4.87;3.37;;;16.80;99.90;;;;;;5031868;28;20209;-78
2023/08/02 10:58:55;;;;;;;4.20;3.00;;;16.70;99.90;;;;;;5031754;28;20292;-76
2023/08/02 11:01:26;;;;;;;4.23;3.17;;;16.90;99.90;;;;;;5031817;28;20233;-77
2023/08/02 11:03:54;;;;;;;3.97;3.00;;;16.90;99.90;;;;;;5031638;28;20224;-75
2023/08/02 11:06:29;;;;;;;5.43;3.40;;;17.10;99.90;;;;;;5031406;28;20406;-79
2023/08/02 11:09:02;;;;;;;6.20;3.30;;;17.20;99.90;;;;;;5031786;28;20205;-76
2023/08/02 11:11:30;;;;;;;4.07;2.97;;;17.20;99.90;;;;;;5031525;28;20263;-77
2023/08/02 11:13:58;;;;;;;4.57;3.00;;;17.20;99.90;;;;;;5031431;28;20259;-78
2023/08/02 11:16:28;;;;;;;3.87;3.17;;;17.20;99.90;;;;;;5033784;28;20213;-78
2023/08/02 11:19:08;;;;;;;5.23;2.80;;;17.50;99.90;;;;;;5035295;28;20193;-76
2023/08/02 11:21:38;;;;;;;3.47;2.77;;;17.70;99.90;;;;;;5036232;28;20240;-77
2023/08/02 11:24:06;;;;;;;4.33;3.13;;;17.90;99.90;;;;;;5054794;28;20215;-79
2023/08/02 11:26:34;;;;;;;4.87;2.80;;;18.20;99.90;;;;;;5055116;28;20219;-74
2023/08/02 11:29:09;;;;;;;5.03;2.90;;;18.20;99.90;;;;;;5053823;28;20220;-74
2023/08/02 11:31:37;;;;;;;2.87;2.53;;;18.40;99.90;;;;;;5034888;28;20244;-74
2023/08/02 11:34:18;;;;;;;5.07;2.93;;;18.60;99.90;;;;;;5035880;28;20222;-76
2023/08/02 11:36:51;;;;;;;3.90;2.97;;;18.80;99.90;;;;;;5035164;28;20670;-74
2023/08/02 11:39:23;;;;;;;4.10;2.90;;;19.10;99.90;;;;;;5052015;28;20213;-77
2023/08/02 11:42:02;;;;;;;3.40;2.77;;;19.40;99.90;;;;;;5055022;28;20212;-78
2023/08/02 11:44:31;;;;;;;5.10;2.70;;;20.00;99.90;;;;;;5054789;28;20207;-76
2023/08/02 11:47:02;;;;;;;2.70;2.50;;;20.30;99.90;;;;;;5036187;28;20207;-75
2023/08/02 11:49:31;;;;;;;5.10;2.50;;;19.80;99.90;;;;;;5035289;28;20205;-77
2023/08/02 11:52:02;;;;;;;2.73;2.47;;;19.90;99.90;;;;;;5035014;28;20213;-76
2023/08/02 11:54:31;;;;;;;3.60;2.80;;;19.80;99.90;;;;;;5034524;28;20220;-74
2023/08/02 11:57:01;;;;;;;4.17;2.43;;;19.80;99.90;;;;;;5034677;28;20213;-74
2023/08/02 11:59:30;;;;;;;5.17;2.80;;;19.80;99.90;;;;;;5034549;28;20212;-76
2023/08/02 12:01:58;;;;;;;5.30;2.57;;;20.30;99.90;;;;;;5034395;28;20229;-74
2023/08/02 12:04:38;;;;;;;2.77;2.43;;;20.60;99.90;;;;;;5034674;28;20604;-75
2023/08/02 12:07:08;;;;;;;2.50;2.03;;;21.10;99.90;;;;;;5017495;28;20259;-75
2023/08/02 12:09:43;;;;;;;3.00;2.27;;;21.40;99.90;;;;;;5036326;28;20870;-79
2023/08/02 12:12:11;;;;;;;3.70;2.30;;;21.30;99.90;;;;;;5035936;28;20204;-75
2023/08/02 12:14:39;;;;;;;4.30;2.20;;;21.40;99.90;;;;;;5045617;28;20211;-76
2023/08/02 12:17:16;;;;;;;3.57;2.10;;;21.60;99.90;;;;;;5056879;28;20215;-75
2023/08/02 12:19:45;;;;;;;3.60;2.10;;;21.70;99.90;;;;;;5057116;28;20219;-78
2023/08/02 12:22:17;;;;;;;4.23;2.50;;;21.70;99.90;;;;;;5050900;28;20264;-75
2023/08/02 12:25:03;;;;;;;2.70;2.00;;;21.70;99.90;;;;;;5048996;28;20214;-81
2023/08/02 12:27:31;;;;;;;2.83;2.47;;;21.60;99.90;;;;;;5054890;28;20689;-80
2023/08/02 12:30:10;;;;;;;2.63;2.30;;;21.50;99.90;;;;;;5056303;28;20212;-75
2023/08/02 12:32:38;;;;;;;2.53;2.33;;;21.50;99.90;;;;;;5042187;28;20651;-80
2023/08/02 12:35:07;;;;;;;2.83;2.10;;;21.70;99.90;;;;;;5036466;28;20220;-77
2023/08/02 12:37:41;;;;;;;2.80;2.20;;;21.90;99.90;;;;;;5035106;28;20698;-74
2023/08/02 12:40:10;;;;;;;2.53;2.33;;;22.20;99.90;;;;;;5034541;28;20258;-78
2023/08/02 12:42:38;;;;;;;2.43;2.10;;;22.30;99.90;;;;;;5034850;28;20225;-77
2023/08/02 12:45:26;;;;;;;2.90;2.00;;;22.20;99.90;;;;;;5036531;28;20201;-76
2023/08/02 12:47:55;;;;;;;3.13;2.30;;;22.40;99.90;;;;;;5036692;28;20231;-76
2023/08/02 12:50:23;;;;;;;3.27;2.13;;;22.40;99.90;;;;;;5036399;28;20201;-79
2023/08/02 12:52:57;;;;;;;2.60;2.40;;;22.50;99.90;;;;;;5035798;28;20219;-79
2023/08/02 12:55:25;;;;;;;3.30;2.50;;;22.90;99.90;;;;;;5036276;28;20209;-77
2023/08/02 12:57:53;;;;;;;2.77;1.90;;;23.10;99.90;;;;;;5035612;28;20205;-75
2023/08/02 13:00:21;;;;;;;2.50;2.30;;;23.30;99.90;;;;;;5037120;28;20204;-77
2023/08/02 13:02:50;;;;;;;3.10;2.30;;;23.40;99.90;;;;;;5035721;28;20228;-77